Skip Navigation Links Skip Navigation Links

Current Weather

Eureka, Nunavut

For information only: do not use for flight planning or navigation.
Latest weather
Observation time Monday, December 16, 2019 2:00 AM CST
Local time Monday, December 16, 2019 3:03 AM CST
Flight conditions Visual Meteorological Conditions
Winds
Wind direction West (260°)
Winds variable from 240° to 310°
Wind speed 3 mph
Visibility 15 mi.
Sky condition
Ceiling unlimited
Cloud layer few clouds 20,000 ft.
Temperature -22°F
Dewpoint -31°F
Altimeter 30.27 in.Hg
Derived measurements
Relative humidity 61%
Wind chill -33°F
Density altitude -6276 ft.
Sea-level pressure 30.29 in.Hg
METAR CWEU 160800Z 26003KT 240V310 15SM FEW200 M30/M35 A3027 RMK CI1 SLP256

Settings

Location code

InnerDrive.Weather 4.0.6770.0 Release CLR 4.0.30319.42000
Copyright ©2018 Inner Drive Technology. All rights reserved. Portions Copyright ©1986-2018 David Braverman.

Find weather

Site navigation


Skip Navigation Links

Place info

Page info

PayPal - The safer, easier way to pay online!

Return home.

Copyright ©2019 Inner Drive Technology. Purveyors of fine, hand-crafted computer software. Page printed 2019-12-16T09:03:47 UTC.